Time;durP1;ratioP1;P1;durP2;ratioP2;P2;SDS_P1;SDS_P2;PMS_P1;PMS_P2;Temp;Humidity;BMP_temperature;BMP_pressure;BME280_temperature;BME280_humidity;BME280_pressure;Samples;Min_cycle;Max_cycle;Signal;HPM_P1;HPM_P2
2024/04/01 00:01:22;;;;;;;;;;;;;;;18.37;70.72;99377.31;5049153;27;96880;-70
2024/04/01 00:03:48;;;;;;;;;;;;;;;18.44;70.03;99372.28;5053072;27;102062;-71
2024/04/01 00:06:13;;;;;;;;;;;;;;;18.40;70.22;99377.03;5050059;27;98834;-70
2024/04/01 00:08:39;;;;;;;;;;;;;;;18.41;69.98;99378.72;5049270;27;97178;-70
2024/04/01 00:11:06;;;;;;;;;;;;;;;18.33;70.25;99379.41;5057963;27;99269;-70
2024/04/01 00:13:32;;;;;;;;;;;;;;;18.43;70.12;99382.13;5052964;27;99230;-70
2024/04/01 00:15:58;;;;;;;;;;;;;;;18.30;70.84;99379.69;5057042;27;101166;-70
2024/04/01 00:18:24;;;;;;;;;;;;;;;18.29;70.60;99374.47;5055437;27;97409;-70
2024/04/01 00:20:56;;;;;;;;;;;;;;;18.26;70.48;99364.88;5060068;27;97040;-70
2024/04/01 00:23:22;;;;;;;;;;;;;;;18.30;70.46;99368.16;5050245;27;100318;-71
2024/04/01 00:25:48;;;;;;;;;;;;;;;18.14;70.93;99347.28;5051329;27;99017;-70
2024/04/01 00:28:16;;;;;;;;;;;;;;;18.13;71.21;99337.56;5050414;27;96615;-71
2024/04/01 00:30:41;;;;;;;;;;;;;;;18.11;71.13;99338.69;5052945;27;96786;-70
2024/04/01 00:33:09;;;;;;;;;;;;;;;18.05;71.45;99336.56;5052803;27;99223;-70
2024/04/01 00:35:36;;;;;;;;;;;;;;;18.09;71.53;99329.94;5052791;27;98336;-70
2024/04/01 00:38:03;;;;;;;;;;;;;;;18.02;71.84;99329.66;5053221;27;96976;-70
2024/04/01 00:40:28;;;;;;;;;;;;;;;18.05;71.58;99320.53;5052817;27;97163;-70
2024/04/01 00:43:03;;;;;;;;;;;;;;;17.99;71.79;99313.03;5051182;27;98235;-70
2024/04/01 00:45:30;;;;;;;;;;;;;;;18.01;71.56;99308.41;5052817;27;101467;-70
2024/04/01 00:47:59;;;;;;;;;;;;;;;17.86;72.32;99311.44;5052050;27;96816;-70
2024/04/01 00:50:25;;;;;;;;;;;;;;;17.88;72.63;99301.47;5059530;27;96771;-69
2024/04/01 00:52:53;;;;;;;;;;;;;;;17.91;72.42;99289.69;5051997;27;96935;-71
2024/04/01 00:55:19;;;;;;;;;;;;;;;17.91;72.56;99293.19;5051717;27;98866;-71
2024/04/01 00:57:45;;;;;;;;;;;;;;;17.74;72.84;99288.47;5054449;27;97222;-71
2024/04/01 01:00:11;;;;;;;;;;;;;;;17.74;73.39;99285.81;5054006;27;96979;-71
2024/04/01 01:02:38;;;;;;;;;;;;;;;17.85;73.02;99282.19;5055446;27;98882;-70
2024/04/01 01:05:04;;;;;;;;;;;;;;;17.85;72.88;99284.88;5057319;27;98705;-70
2024/04/01 01:07:32;;;;;;;;;;;;;;;17.73;73.34;99294.78;5056764;27;96827;-71
2024/04/01 01:09:58;;;;;;;;;;;;;;;17.65;73.97;99299.97;5056389;27;97173;-70
2024/04/01 01:12:25;;;;;;;;;;;;;;;17.63;74.27;99309.94;5052191;27;99354;-70
2024/04/01 01:14:50;;;;;;;;;;;;;;;17.59;74.33;99308.47;5050011;27;98833;-70
2024/04/01 01:17:16;;;;;;;;;;;;;;;17.76;73.53;99307.91;5053185;27;96865;-70
2024/04/01 01:19:43;;;;;;;;;;;;;;;17.89;73.04;99316.53;5054439;27;96933;-70
2024/04/01 01:22:15;;;;;;;;;;;;;;;17.74;73.52;99312.50;5058431;27;99166;-69
2024/04/01 01:24:42;;;;;;;;;;;;;;;17.83;73.11;99310.88;5052261;27;98977;-70
2024/04/01 01:27:09;;;;;;;;;;;;;;;17.90;72.88;99312.88;5052367;27;96708;-70
2024/04/01 01:29:34;;;;;;;;;;;;;;;17.88;73.21;99309.47;5052440;27;97136;-70
2024/04/01 01:32:00;;;;;;;;;;;;;;;17.61;73.84;99311.91;5048758;27;99097;-70
2024/04/01 01:34:26;;;;;;;;;;;;;;;17.47;74.44;99312.22;5049203;27;98747;-70
2024/04/01 01:36:52;;;;;;;;;;;;;;;17.34;75.09;99304.41;5051131;27;96723;-70
2024/04/01 01:39:18;;;;;;;;;;;;;;;17.24;75.52;99306.19;5051393;27;98347;-69
2024/04/01 01:41:45;;;;;;;;;;;;;;;17.22;75.81;99301.94;5050635;27;98955;-70
2024/04/01 01:44:10;;;;;;;;;;;;;;;17.35;75.48;99291.91;5051139;27;98914;-70
2024/04/01 01:46:37;;;;;;;;;;;;;;;17.44;74.90;99283.13;5049952;27;96877;-70
2024/04/01 01:49:02;;;;;;;;;;;;;;;17.23;75.44;99290.31;5051495;27;96776;-70
2024/04/01 01:51:30;;;;;;;;;;;;;;;17.32;75.16;99284.19;5050565;27;97353;-70
2024/04/01 01:53:56;;;;;;;;;;;;;;;17.46;74.63;99270.47;5050828;27;98891;-70
2024/04/01 01:56:23;;;;;;;;;;;;;;;17.46;74.92;99268.63;5048062;27;98590;-70
2024/04/01 01:58:49;;;;;;;;;;;;;;;17.61;74.09;99269.16;5051146;27;96810;-70
2024/04/01 02:01:15;;;;;;;;;;;;;;;17.26;75.20;99280.22;5050079;27;98837;-70
2024/04/01 02:03:44;;;;;;;;;;;;;;;17.11;75.83;99266.34;5051576;27;97610;-69
2024/04/01 02:06:10;;;;;;;;;;;;;;;17.11;75.89;99277.03;5051990;27;97153;-69
2024/04/01 02:08:35;;;;;;;;;;;;;;;17.03;75.95;99276.00;5060317;27;96933;-69
2024/04/01 02:11:02;;;;;;;;;;;;;;;16.89;76.72;99279.81;5051547;27;100407;-70
2024/04/01 02:13:27;;;;;;;;;;;;;;;16.85;76.75;99280.22;5050483;27;98879;-69
2024/04/01 02:16:06;;;;;;;;;;;;;;;16.70;77.67;99283.19;5051743;27;96706;-70
2024/04/01 02:18:31;;;;;;;;;;;;;;;16.80;77.34;99275.28;5053933;27;98770;-69
2024/04/01 02:20:58;;;;;;;;;;;;;;;17.05;76.22;99271.38;5056191;27;97905;-69
2024/04/01 02:23:29;;;;;;;;;;;;;;;16.85;76.43;99265.06;5052451;27;99013;-69
2024/04/01 02:25:55;;;;;;;;;;;;;;;16.66;77.61;99264.91;5051954;27;97458;-69
2024/04/01 02:28:20;;;;;;;;;;;;;;;16.80;77.37;99275.28;5051804;27;96828;-69
2024/04/01 02:30:47;;;;;;;;;;;;;;;16.80;76.85;99263.75;5051056;27;101491;-70
2024/04/01 02:33:13;;;;;;;;;;;;;;;16.80;76.63;99275.28;5048902;27;98773;-70
2024/04/01 02:35:41;;;;;;;;;;;;;;;16.82;76.97;99261.78;5049091;27;97732;-70
2024/04/01 02:38:07;;;;;;;;;;;;;;;17.02;76.38;99263.63;5050452;27;98133;-70
2024/04/01 02:40:33;;;;;;;;;;;;;;;16.89;76.22;99265.63;5049765;27;98906;-70
2024/04/01 02:42:58;;;;;;;;;;;;;;;16.92;75.86;99271.56;5050377;27;99005;-70
2024/04/01 02:45:24;;;;;;;;;;;;;;;16.88;76.13;99258.59;5050691;27;96598;-71
2024/04/01 02:47:49;;;;;;;;;;;;;;;16.93;75.99;99251.94;5050393;27;97118;-71
2024/04/01 02:50:17;;;;;;;;;;;;;;;16.87;76.22;99252.41;5047666;27;98784;-71
2024/04/01 02:52:42;;;;;;;;;;;;;;;16.89;76.06;99257.63;5049896;27;101353;-71
2024/04/01 02:55:09;;;;;;;;;;;;;;;17.16;75.07;99263.28;5049858;27;99587;-71
2024/04/01 02:57:35;;;;;;;;;;;;;;;17.30;74.36;99257.59;5050278;27;96893;-71
2024/04/01 03:00:01;;;;;;;;;;;;;;;17.34;74.08;99255.50;5049797;27;99316;-71
2024/04/01 03:02:27;;;;;;;;;;;;;;;17.36;73.61;99264.25;5059897;27;98843;-71
2024/04/01 03:04:53;;;;;;;;;;;;;;;17.40;73.51;99266.50;5051729;27;98940;-71
2024/04/01 03:07:20;;;;;;;;;;;;;;;17.36;73.61;99265.09;5052781;27;97029;-70
2024/04/01 03:09:46;;;;;;;;;;;;;;;17.37;73.36;99266.78;5052563;27;99529;-71
2024/04/01 03:12:11;;;;;;;;;;;;;;;17.31;73.26;99266.47;5049895;27;97469;-71
2024/04/01 03:14:37;;;;;;;;;;;;;;;17.38;73.09;99264.97;5053649;27;96765;-71
2024/04/01 03:17:03;;;;;;;;;;;;;;;17.38;72.88;99254.28;5050270;27;97123;-70
2024/04/01 03:19:29;;;;;;;;;;;;;;;17.31;72.87;99251.28;5056506;27;98624;-70
2024/04/01 03:21:54;;;;;;;;;;;;;;;17.24;73.04;99249.28;5047854;27;98801;-70
2024/04/01 03:24:22;;;;;;;;;;;;;;;17.10;73.54;99251.31;5050356;27;97041;-70
2024/04/01 03:26:47;;;;;;;;;;;;;;;17.00;73.94;99239.72;5050068;27;96746;-70
2024/04/01 03:29:13;;;;;;;;;;;;;;;17.03;73.84;99244.81;5051966;27;98809;-69
2024/04/01 03:31:41;;;;;;;;;;;;;;;17.00;73.90;99237.06;5049108;27;97829;-70
2024/04/01 03:34:07;;;;;;;;;;;;;;;17.10;73.19;99237.13;5049832;27;98177;-70
2024/04/01 03:36:33;;;;;;;;;;;;;;;17.08;73.22;99229.25;5048368;27;96810;-70
2024/04/01 03:38:59;;;;;;;;;;;;;;;17.00;73.35;99230.91;5048990;27;99278;-70
2024/04/01 03:41:26;;;;;;;;;;;;;;;17.04;72.96;99222.50;5046528;27;97771;-70
2024/04/01 03:43:52;;;;;;;;;;;;;;;17.04;72.98;99216.31;5050092;27;96697;-70
2024/04/01 03:46:19;;;;;;;;;;;;;;;17.00;73.22;99217.56;5054269;27;96926;-70
2024/04/01 03:48:45;;;;;;;;;;;;;;;16.91;73.53;99205.00;5052490;27;98945;-70
2024/04/01 03:51:10;;;;;;;;;;;;;;;17.00;72.89;99204.22;5049512;27;99868;-70
2024/04/01 03:53:37;;;;;;;;;;;;;;;16.96;72.98;99203.63;5049438;27;97719;-70
2024/04/01 03:56:02;;;;;;;;;;;;;;;16.99;72.91;99203.38;5048351;27;96900;-70
2024/04/01 03:58:30;;;;;;;;;;;;;;;16.88;72.80;99195.44;5055416;27;98970;-70
2024/04/01 04:00:55;;;;;;;;;;;;;;;16.99;72.45;99187.38;5050053;27;100895;-68
2024/04/01 04:03:22;;;;;;;;;;;;;;;16.94;72.80;99184.22;5045735;27;96860;-68
2024/04/01 04:05:47;;;;;;;;;;;;;;;17.04;72.12;99173.63;5049533;27;96991;-68
2024/04/01 04:08:13;;;;;;;;;;;;;;;17.03;72.11;99175.44;5051718;27;97879;-69
2024/04/01 04:10:39;;;;;;;;;;;;;;;17.03;71.55;99171.91;5050171;27;99155;-69
2024/04/01 04:13:05;;;;;;;;;;;;;;;16.99;71.80;99162.50;5049193;27;96693;-69
2024/04/01 04:15:31;;;;;;;;;;;;;;;17.08;71.24;99162.53;5049632;27;96861;-69
2024/04/01 04:17:57;;;;;;;;;;;;;;;17.09;71.24;99161.56;5051773;27;100639;-69
2024/04/01 04:20:23;;;;;;;;;;;;;;;17.08;70.72;99159.00;5059470;27;99030;-69
2024/04/01 04:22:48;;;;;;;;;;;;;;;17.05;70.93;99152.13;5049640;27;96869;-68
2024/04/01 04:25:14;;;;;;;;;;;;;;;17.07;70.62;99143.97;5049468;27;97809;-69
2024/04/01 04:27:40;;;;;;;;;;;;;;;16.97;70.74;99133.28;5051286;27;98929;-69
2024/04/01 04:30:08;;;;;;;;;;;;;;;16.85;71.44;99137.00;5048809;27;98863;-68
2024/04/01 04:32:36;;;;;;;;;;;;;;;17.00;70.98;99135.66;5048986;27;96707;-69
2024/04/01 04:35:02;;;;;;;;;;;;;;;17.01;71.28;99142.69;5046966;27;97240;-69
2024/04/01 04:37:27;;;;;;;;;;;;;;;17.15;70.45;99146.81;5047486;27;98839;-69
2024/04/01 04:39:54;;;;;;;;;;;;;;;16.97;71.03;99138.63;5048055;27;98723;-70
2024/04/01 04:42:19;;;;;;;;;;;;;;;17.09;70.31;99142.88;5048796;27;97054;-69
2024/04/01 04:44:45;;;;;;;;;;;;;;;16.89;71.19;99145.59;5049319;27;98087;-69
2024/04/01 04:47:11;;;;;;;;;;;;;;;16.94;71.00;99146.88;5048938;27;99041;-69
2024/04/01 04:49:38;;;;;;;;;;;;;;;16.90;71.34;99156.13;5047168;27;100418;-70
2024/04/01 04:52:03;;;;;;;;;;;;;;;16.92;71.01;99167.53;5059205;27;96680;-69
2024/04/01 04:54:30;;;;;;;;;;;;;;;16.95;70.74;99166.38;5045625;27;96767;-69
2024/04/01 04:56:55;;;;;;;;;;;;;;;16.76;71.37;99167.13;5049574;27;98727;-69
2024/04/01 04:59:21;;;;;;;;;;;;;;;16.70;72.20;99175.66;5057775;27;97172;-70
2024/04/01 05:01:46;;;;;;;;;;;;;;;16.78;72.16;99169.69;5052175;27;96995;-70
2024/04/01 05:04:13;;;;;;;;;;;;;;;16.97;71.58;99172.44;5052263;27;96849;-70
2024/04/01 05:06:40;;;;;;;;;;;;;;;17.21;70.62;99167.63;5051196;27;99143;-70
2024/04/01 05:09:08;;;;;;;;;;;;;;;17.10;70.71;99162.41;5053002;27;96683;-69
2024/04/01 05:11:34;;;;;;;;;;;;;;;17.34;69.87;99167.41;5052195;27;96643;-70
2024/04/01 05:14:00;;;;;;;;;;;;;;;17.43;69.74;99150.59;5052367;27;96998;-70
2024/04/01 05:16:25;;;;;;;;;;;;;;;17.38;70.17;99150.16;5051667;27;102055;-70
2024/04/01 05:18:52;;;;;;;;;;;;;;;17.32;70.06;99150.69;5051923;27;98759;-70
2024/04/01 05:21:17;;;;;;;;;;;;;;;17.26;70.66;99145.91;5051907;27;96770;-70
2024/04/01 05:23:45;;;;;;;;;;;;;;;17.40;70.47;99140.16;5050364;27;96804;-70
2024/04/01 05:26:10;;;;;;;;;;;;;;;17.53;69.76;99130.91;5052220;27;97738;-70
2024/04/01 05:28:36;;;;;;;;;;;;;;;17.52;70.06;99129.22;5054056;27;98867;-71
2024/04/01 05:31:02;;;;;;;;;;;;;;;17.68;69.77;99122.56;5051286;27;96646;-70
2024/04/01 05:33:33;;;;;;;;;;;;;;;17.67;69.74;99107.50;5051171;27;97024;-70
2024/04/01 05:35:59;;;;;;;;;;;;;;;17.69;70.02;99103.72;5054569;27;98803;-70
2024/04/01 05:38:26;;;;;;;;;;;;;;;17.52;70.53;99109.72;5052026;27;99812;-70
2024/04/01 05:40:52;;;;;;;;;;;;;;;17.72;70.31;99098.09;5049457;27;98601;-70
2024/04/01 05:43:19;;;;;;;;;;;;;;;17.65;70.46;99088.97;5046002;27;98381;-70
2024/04/01 05:45:44;;;;;;;;;;;;;;;17.65;70.32;99080.97;5040926;27;102621;-70
2024/04/01 05:48:10;;;;;;;;;;;;;;;17.74;70.02;99082.78;5055280;27;99594;-70
2024/04/01 05:50:35;;;;;;;;;;;;;;;17.82;69.79;99084.75;5047583;27;96823;-70
2024/04/01 05:53:02;;;;;;;;;;;;;;;18.00;68.87;99087.56;5057984;27;98256;-70
2024/04/01 05:55:27;;;;;;;;;;;;;;;17.98;68.96;99094.88;5051342;27;98764;-72
2024/04/01 05:57:54;;;;;;;;;;;;;;;17.98;68.75;99098.41;5045925;27;98738;-70
2024/04/01 06:00:20;;;;;;;;;;;;;;;18.16;68.25;99098.53;5050858;27;96751;-71
2024/04/01 06:02:49;;;;;;;;;;;;;;;18.20;67.77;99114.13;5051066;27;97187;-70
2024/04/01 06:05:14;;;;;;;;;;;;;;;18.33;67.27;99111.16;5058239;27;96979;-71
2024/04/01 06:07:41;;;;;;;;;;;;;;;18.36;66.83;99112.72;5050536;27;98778;-72
2024/04/01 06:10:06;;;;;;;;;;;;;;;18.61;66.12;99104.97;5051145;27;96786;-70
2024/04/01 06:12:33;;;;;;;;;;;;;;;18.88;64.58;99116.72;5052109;27;97027;-70
2024/04/01 06:14:59;;;;;;;;;;;;;;;18.96;64.23;99119.50;5051232;27;99500;-69
2024/04/01 06:17:25;;;;;;;;;;;;;;;19.32;63.12;99109.75;5051140;27;97732;-70
2024/04/01 06:19:51;;;;;;;;;;;;;;;19.41;61.68;99115.06;5053837;27;96795;-70
2024/04/01 06:22:17;;;;;;;;;;;;;;;19.22;62.50;99111.63;5051077;27;96936;-70
2024/04/01 06:24:42;;;;;;;;;;;;;;;19.31;62.05;99110.72;5051844;27;98796;-71
2024/04/01 06:27:09;;;;;;;;;;;;;;;19.33;61.61;99101.56;5050186;27;99134;-71
2024/04/01 06:29:34;;;;;;;;;;;;;;;19.29;61.05;99094.84;5054254;27;96844;-71
2024/04/01 06:32:02;;;;;;;;;;;;;;;19.22;61.22;99093.75;5049965;27;96859;-71
2024/04/01 06:34:27;;;;;;;;;;;;;;;19.12;61.59;99092.94;5051615;27;99034;-68
2024/04/01 06:36:53;;;;;;;;;;;;;;;19.12;61.36;99082.22;5057805;27;98827;-69
2024/04/01 06:39:19;;;;;;;;;;;;;;;19.20;60.91;99089.50;5049881;27;96719;-70
2024/04/01 06:41:45;;;;;;;;;;;;;;;19.09;60.94;99085.22;5050012;27;99593;-70
2024/04/01 06:44:10;;;;;;;;;;;;;;;19.29;60.29;99069.88;5050068;27;98514;-70
2024/04/01 06:46:37;;;;;;;;;;;;;;;19.24;59.87;99077.50;5051333;27;99204;-71
2024/04/01 06:49:04;;;;;;;;;;;;;;;19.26;59.88;99072.84;5050065;27;97013;-70
2024/04/01 06:51:31;;;;;;;;;;;;;;;19.40;59.19;99067.84;5054333;27;96884;-70
2024/04/01 06:53:56;;;;;;;;;;;;;;;19.34;59.22;99052.38;5046895;27;98280;-70
2024/04/01 06:56:22;;;;;;;;;;;;;;;19.36;58.80;99055.72;5051094;27;99465;-70
2024/04/01 06:58:47;;;;;;;;;;;;;;;19.37;59.00;99049.38;5051149;27;97072;-70
2024/04/01 07:01:14;;;;;;;;;;;;;;;19.30;58.45;99059.00;5048545;27;96827;-70
2024/04/01 07:03:39;;;;;;;;;;;;;;;19.20;58.81;99050.19;5050174;27;98522;-71
2024/04/01 07:06:07;;;;;;;;;;;;;;;19.19;58.74;99069.94;5050357;27;98799;-70
2024/04/01 07:08:33;;;;;;;;;;;;;;;19.46;57.94;99064.59;5050205;27;96727;-70
2024/04/01 07:10:59;;;;;;;;;;;;;;;19.59;57.28;99074.09;5050461;27;97201;-70
2024/04/01 07:13:25;;;;;;;;;;;;;;;19.93;56.23;99067.06;5047877;27;99164;-70
2024/04/01 07:15:51;;;;;;;;;;;;;;;19.97;55.99;99060.38;5050175;27;98688;-70
2024/04/01 07:18:16;;;;;;;;;;;;;;;20.26;55.05;99074.38;5049862;27;96982;-70
2024/04/01 07:20:43;;;;;;;;;;;;;;;20.28;54.85;99072.34;5049240;27;96789;-70
2024/04/01 07:23:09;;;;;;;;;;;;;;;20.19;55.00;99075.13;5049572;27;98996;-70
2024/04/01 07:25:35;;;;;;;;;;;;;;;19.98;55.04;99080.81;5052520;27;101129;-70
2024/04/01 07:28:01;;;;;;;;;;;;;;;19.95;55.16;99089.19;5055337;27;97912;-70
2024/04/01 07:30:28;;;;;;;;;;;;;;;20.10;54.94;99084.09;5053344;27;96827;-70
2024/04/01 07:32:53;;;;;;;;;;;;;;;20.43;53.58;99082.56;5049001;27;99161;-70
2024/04/01 07:35:20;;;;;;;;;;;;;;;20.53;52.90;99091.34;5050120;27;98989;-70
2024/04/01 07:37:45;;;;;;;;;;;;;;;20.17;54.01;99080.66;5054522;27;98825;-70
2024/04/01 07:40:13;;;;;;;;;;;;;;;20.19;54.17;99065.25;5054303;27;96855;-71
2024/04/01 07:42:42;;;;;;;;;;;;;;;20.17;53.94;99063.72;5047719;27;99333;-71
2024/04/01 07:45:09;;;;;;;;;;;;;;;20.07;54.23;99062.97;5051664;27;98865;-70
2024/04/01 07:47:34;;;;;;;;;;;;;;;19.93;54.92;99064.38;5048784;27;96764;-71
2024/04/01 07:50:00;;;;;;;;;;;;;;;19.95;54.76;99053.50;5048567;27;97716;-71
2024/04/01 07:52:26;;;;;;;;;;;;;;;20.05;54.57;99049.72;5048891;27;98088;-71
2024/04/01 07:54:52;;;;;;;;;;;;;;;20.23;54.16;99026.38;5051506;27;99418;-70
2024/04/01 07:57:19;;;;;;;;;;;;;;;20.30;53.23;99019.41;5049002;27;97170;-71
2024/04/01 07:59:45;;;;;;;;;;;;;;;20.48;52.76;99023.91;5049695;27;97110;-71
2024/04/01 08:02:10;;;;;;;;;;;;;;;20.66;52.35;99016.63;5048800;27;99377;-71
2024/04/01 08:04:37;;;;;;;;;;;;;;;20.67;52.18;99012.97;5049044;27;98851;-71
2024/04/01 08:07:02;;;;;;;;;;;;;;;20.90;51.10;99014.06;5048345;27;96708;-71
2024/04/01 08:09:29;;;;;;;;;;;;;;;20.79;51.19;99019.72;5049604;27;96606;-71
2024/04/01 08:11:54;;;;;;;;;;;;;;;20.78;50.93;99025.25;5047829;27;98973;-71
2024/04/01 08:14:22;;;;;;;;;;;;;;;20.87;51.06;99014.38;5048485;27;99094;-71
2024/04/01 08:16:47;;;;;;;;;;;;;;;20.99;50.96;99004.19;5047157;27;96801;-71
2024/04/01 08:19:15;;;;;;;;;;;;;;;21.04;50.12;99015.28;5049204;27;96787;-72
2024/04/01 08:21:40;;;;;;;;;;;;;;;21.35;49.08;99018.25;5046214;27;99751;-71
2024/04/01 08:24:06;;;;;;;;;;;;;;;21.31;48.97;99019.59;5049197;27;98802;-71
2024/04/01 08:26:32;;;;;;;;;;;;;;;21.21;49.72;99013.50;5049511;27;97355;-72
2024/04/01 08:28:58;;;;;;;;;;;;;;;21.14;49.48;98999.84;5052607;27;97698;-72
2024/04/01 08:31:25;;;;;;;;;;;;;;;21.37;49.16;98995.59;5048532;27;98880;-70
2024/04/01 08:33:51;;;;;;;;;;;;;;;21.42;48.35;98990.56;5052053;27;98724;-71
2024/04/01 08:36:17;;;;;;;;;;;;;;;21.63;47.54;98978.50;5051686;27;96938;-71
2024/04/01 08:38:43;;;;;;;;;;;;;;;21.74;47.02;98976.31;5050136;27;96791;-71
2024/04/01 08:41:10;;;;;;;;;;;;;;;21.84;46.72;98963.56;5053317;27;98937;-71
2024/04/01 08:43:40;;;;;;;;;;;;;;;21.90;46.72;98956.66;5052007;27;98744;-71
2024/04/01 08:46:06;;;;;;;;;;;;;;;22.11;45.87;98943.56;5050485;27;98522;-71
2024/04/01 08:48:33;;;;;;;;;;;;;;;22.22;45.44;98942.34;5047886;27;96919;-70
2024/04/01 08:51:00;;;;;;;;;;;;;;;22.44;44.89;98944.31;5051378;27;99202;-71
2024/04/01 08:53:33;;;;;;;;;;;;;;;22.43;44.42;98945.31;5049611;27;97457;-71
2024/04/01 08:55:58;;;;;;;;;;;;;;;22.46;44.20;98958.41;5053421;27;96878;-71
2024/04/01 08:58:25;;;;;;;;;;;;;;;22.82;42.96;98966.06;5056317;27;96835;-71
2024/04/01 09:00:50;;;;;;;;;;;;;;;22.61;43.32;98985.47;5050899;27;100550;-71
2024/04/01 09:03:17;;;;;;;;;;;;;;;22.25;43.13;98991.25;5051529;27;102358;-71
2024/04/01 09:07:53;;;;;;;65.57;10.63;;;;;;;22.06;43.95;98982.72;5073081;27;97188;-71
2024/04/01 09:10:21;;;;;;;53.38;10.80;;;;;;;22.31;43.49;98983.53;5076024;27;97097;-71
2024/04/01 09:12:47;;;;;;;55.40;9.48;;;;;;;22.34;42.88;98957.09;5069621;27;98857;-71
2024/04/01 09:15:15;;;;;;;60.53;10.48;;;;;;;22.73;42.07;98959.88;5075911;27;99577;-71
2024/04/01 09:17:41;;;;;;;62.40;10.57;;;;;;;22.85;41.87;98954.94;5070776;27;97173;-70
2024/04/01 09:20:07;;;;;;;59.03;10.55;;;;;;;22.67;41.82;98963.22;5070704;27;97175;-69
2024/04/01 09:22:33;;;;;;;64.30;11.10;;;;;;;22.73;42.15;98954.47;5061449;27;98830;-70
2024/04/01 09:25:00;;;;;;;54.65;10.60;;;;;;;23.12;41.18;98950.91;5067718;27;97886;-70
2024/04/01 09:27:27;;;;;;;53.53;9.55;;;;;;;22.93;41.22;98950.34;5069740;27;96846;-70
2024/04/01 09:29:52;;;;;;;63.53;9.80;;;;;;;22.83;41.42;98952.44;5072086;27;96860;-70
2024/04/01 09:32:19;;;;;;;53.38;10.52;;;;;;;23.12;41.23;98948.22;5071272;27;98183;-70
2024/04/01 09:34:44;;;;;;;45.50;8.07;;;;;;;22.88;41.00;98943.81;5074834;27;98850;-70
2024/04/01 09:37:11;;;;;;;47.70;8.13;;;;;;;22.59;41.74;98939.03;5071820;27;97073;-70
2024/04/01 09:39:36;;;;;;;52.75;9.13;;;;;;;22.85;41.59;98938.75;5073305;27;96875;-69
2024/04/01 09:42:06;;;;;;;46.78;9.25;;;;;;;22.87;41.33;98934.06;5070217;27;99285;-69
2024/04/01 09:44:33;;;;;;;47.05;8.38;;;;;;;23.03;40.78;98917.81;5057992;27;100005;-71
2024/04/01 09:47:00;;;;;;;54.20;8.75;;;;;;;23.28;39.92;98908.56;5070623;27;96875;-71
2024/04/01 09:49:28;;;;;;;43.47;8.50;;;;;;;23.42;39.63;98902.38;5071151;27;97947;-70
2024/04/01 09:51:55;;;;;;;46.28;8.43;;;;;;;23.74;38.92;98892.38;5069771;27;97765;-71
2024/04/01 09:54:20;;;;;;;51.03;8.48;;;;;;;23.80;38.95;98887.06;5068852;27;99097;-72
2024/04/01 09:57:28;;;;;;;37.33;7.30;;;;;;;23.93;37.59;98854.06;5077506;27;96879;-71
2024/04/01 10:00:24;;;;;;;52.13;8.45;;;;;;;24.11;37.12;98859.94;5072258;27;97045;-71
2024/04/01 10:03:26;;;;;;;42.13;7.47;;;;;;;24.11;37.43;98846.44;5048146;27;97768;-71
2024/04/01 10:06:49;;;;;;;53.60;7.53;;;;;;;24.58;36.42;98827.16;5072318;27;99340;-71
2024/04/01 10:09:52;;;;;;;40.05;7.15;;;;;;;24.80;35.50;98836.13;5061702;27;98695;-71
2024/04/01 10:12:53;;;;;;;39.53;6.55;;;;;;;25.11;33.96;98840.44;5071838;27;96758;-71
2024/04/01 10:15:57;;;;;;;31.80;6.03;;;;;;;25.10;34.07;98833.34;5067431;27;100957;-71
2024/04/01 10:18:45;;;;;;;38.53;6.32;;;;;;;24.89;34.49;98826.91;5058074;27;98832;-71
2024/04/01 10:21:25;;;;;;;48.78;6.20;;;;;;;25.60;33.47;98843.19;5053000;27;96769;-71
2024/04/01 10:24:33;;;;;;;35.95;5.97;;;;;;;25.30;33.06;98850.59;5068129;27;96773;-71
2024/04/01 10:27:18;;;;;;;31.80;6.25;;;;;;;25.48;32.38;98834.72;5055733;27;98699;-71
2024/04/01 10:30:09;;;;;;;28.83;4.78;;;;;;;25.55;32.22;98830.22;5054706;27;98762;-71
2024/04/01 10:33:05;;;;;;;36.40;6.22;;;;;;;25.78;31.46;98820.03;5056830;27;96715;-71
2024/04/01 10:36:00;;;;;;;41.08;5.28;;;;;;;25.83;30.47;98832.94;5052569;27;97914;-71
2024/04/01 10:39:01;;;;;;;29.23;5.20;;;;;;;25.82;30.63;98823.16;5045549;27;99261;-71
2024/04/01 10:42:02;;;;;;;29.23;4.95;;;;;;;26.11;30.81;98814.81;5058591;27;98892;-70
2024/04/01 10:45:10;;;;;;;25.95;4.72;;;;;;;26.40;30.17;98793.91;5060573;27;97175;-70
2024/04/01 10:48:10;;;;;;;27.65;5.10;;;;;;;26.67;29.82;98792.13;5053795;27;98892;-71
2024/04/01 10:51:02;;;;;;;26.63;4.40;;;;;;;26.87;28.83;98793.03;5056101;27;100643;-71
2024/04/01 10:53:52;;;;;;;24.95;4.78;;;;;;;26.66;28.60;98802.13;5055702;27;98941;-70
2024/04/01 10:56:54;;;;;;;25.85;4.18;;;;;;;26.68;28.77;98802.78;5048678;27;96906;-71
2024/04/01 10:59:59;;;;;;;23.55;3.85;;;;;;;26.33;28.88;98818.25;5064569;27;96822;-71
2024/04/01 11:02:54;;;;;;;21.50;3.72;;;;;;;25.97;29.74;98821.19;5024711;27;99211;-70
2024/04/01 11:05:52;;;;;;;20.45;4.03;;;;;;;25.99;29.01;98810.97;5034009;27;98967;-71
2024/04/01 11:08:25;;;;;;;20.27;3.70;;;;;;;25.67;30.05;98830.53;5055322;27;96858;-70
2024/04/01 11:11:01;;;;;;;25.08;4.43;;;;;;;25.65;30.22;98813.69;5058107;27;96708;-70
2024/04/01 11:13:28;;;;;;;22.02;3.05;;;;;;;25.79;29.51;98815.44;5054948;27;98899;-70
2024/04/01 11:15:56;;;;;;;19.67;3.40;;;;;;;25.54;29.80;98812.31;5061509;27;98921;-70
2024/04/01 11:18:35;;;;;;;20.52;3.22;;;;;;;25.64;29.86;98810.13;5050211;27;96957;-71
2024/04/01 11:21:09;;;;;;;21.08;3.42;;;;;;;25.58;29.53;98824.44;5061188;27;96897;-70
2024/04/01 11:24:04;;;;;;;25.98;3.88;;;;;;;25.72;29.68;98826.22;5056178;27;98904;-71
2024/04/01 11:26:53;;;;;;;21.90;3.63;;;;;;;25.58;29.41;98835.28;5050691;27;97596;-71
2024/04/01 11:29:39;;;;;;;25.40;3.55;;;;;;;25.72;29.35;98828.09;5057915;27;96835;-71
2024/04/01 11:32:12;;;;;;;19.37;3.63;;;;;;;26.19;29.18;98822.75;5062211;27;98276;-71
2024/04/01 11:34:48;;;;;;;29.15;3.65;;;;;;;26.24;29.10;98824.91;5055543;27;99636;-71
2024/04/01 11:37:29;;;;;;;31.70;4.30;;;;;;;26.44;28.53;98820.41;5047280;27;98775;-71
2024/04/01 11:40:01;;;;;;;19.98;3.28;;;;;;;26.29;28.83;98832.41;5055198;27;96879;-71
2024/04/01 11:42:30;;;;;;;24.20;3.72;;;;;;;26.21;29.00;98841.50;5049492;27;96808;-70
2024/04/01 11:44:58;;;;;;;17.45;3.55;;;;;;;25.85;28.76;98835.47;5054873;27;99450;-70
2024/04/01 11:47:26;;;;;;;18.60;3.25;;;;;;;25.66;29.19;98832.44;5054753;27;98849;-70
2024/04/01 11:49:52;;;;;;;24.60;3.05;;;;;;;25.91;28.96;98831.97;5054058;27;96789;-71
2024/04/01 11:52:20;;;;;;;19.85;3.33;;;;;;;26.19;29.34;98819.19;5054138;27;96865;-71
2024/04/01 11:54:46;;;;;;;20.38;3.30;;;;;;;26.16;29.04;98792.53;5047542;27;99295;-71
2024/04/01 11:57:21;;;;;;;16.65;3.08;;;;;;;26.32;28.92;98794.13;5055923;27;98839;-70
2024/04/01 11:59:47;;;;;;;13.30;2.42;;;;;;;26.40;28.74;98812.88;5051057;27;98213;-71
2024/04/01 12:02:14;;;;;;;18.95;3.03;;;;;;;26.59;28.53;98798.56;5053894;27;96906;-70
2024/04/01 12:04:39;;;;;;;20.25;3.15;;;;;;;26.54;28.72;98807.31;5057732;27;100690;-70
2024/04/01 12:07:06;;;;;;;22.17;2.72;;;;;;;26.57;28.61;98804.22;5051371;27;100157;-71
2024/04/01 12:09:34;;;;;;;26.33;4.18;;;;;;;26.28;28.96;98812.63;5058437;27;96808;-70
2024/04/01 12:12:01;;;;;;;20.08;3.55;;;;;;;26.07;29.46;98807.28;5058459;27;97120;-70
2024/04/01 12:14:27;;;;;;;23.40;3.60;;;;;;;25.67;30.05;98798.91;5061151;27;98912;-70
2024/04/01 12:16:58;;;;;;;20.75;3.72;;;;;;;25.84;30.09;98799.44;5058307;27;98905;-76
2024/04/01 12:19:25;;;;;;;19.30;3.38;;;;;;;25.93;29.89;98792.03;5061049;27;96776;-76
2024/04/01 12:21:51;;;;;;;23.42;3.33;;;;;;;26.13;30.33;98784.81;5056314;27;97155;-75
2024/04/01 12:24:18;;;;;;;18.63;4.03;;;;;;;26.42;30.07;98776.44;5057347;27;98929;-75
2024/04/01 12:26:51;;;;;;;22.52;4.05;;;;;;;26.69;29.38;98761.09;5054131;27;101199;-75
2024/04/01 12:29:18;;;;;;;18.05;3.42;;;;;;;26.84;29.39;98763.63;5052729;27;96897;-75
2024/04/01 12:31:48;;;;;;;22.95;3.63;;;;;;;26.47;29.41;98771.25;5059531;27;97570;-75
2024/04/01 12:34:14;;;;;;;25.42;3.78;;;;;;;26.31;30.19;98760.78;5054868;27;101085;-74
2024/04/01 12:36:41;;;;;;;22.90;3.78;;;;;;;26.31;29.80;98760.78;5054210;27;98834;-75